Portada
METAR-TAF:

METAR-TAF

Aeroports :

Plataforma petroliera

Euro, Països Baixos

latitud: 51-59-52N, longitud: 3-16-30E, altitud: 18 m

Observació

L'informe es va fer fa 41 minuts, a les 19:55 UTC
Vent 15 kt del Nord
Temperatura 14°C
Humitat 94%
Pressió 1021 hPa
Visibilitat 10 km o més

METAR: EHSA 011955Z AUTO 36015KT 9999 ///////// 14/13 Q1021 W11/H7

Hora: 22:36 (20:36 UTC)


TAF: manca

Observacions i pronòstics meteorològics de més de 4000 aeroports (METAR i TAF).

Les estacions disponibles són els punts grocs i vermells al mapa.

Posi el ratolí al punt desitjat per veure el nom de l'estació.

Feu clic per veure les observacions i els pronòstics meteorològics.

Per canviar el mapa: feu clic els botons verds amb una creu de color negre per apropar; al botó verd amb un guió per allunyar la imatge; o en les fletxes verdes per a mapes adjacents.


METAR-TAF: